createdAt,value
2019-04-11T00:01:03.882Z,96.30
2019-04-11T00:03:35.525Z,96.30
2019-04-11T00:06:07.424Z,96.50
2019-04-11T00:08:38.582Z,96.50
2019-04-11T00:11:09.465Z,96.80
2019-04-11T00:13:41.127Z,96.90
2019-04-11T00:16:12.995Z,96.90
2019-04-11T00:18:44.994Z,97.00
2019-04-11T00:21:37.842Z,96.90
2019-04-11T00:24:08.168Z,96.80
2019-04-11T00:26:38.681Z,97.10
2019-04-11T00:29:10.149Z,97.10
2019-04-11T00:31:41.125Z,97.00
2019-04-11T00:34:12.984Z,97.20
2019-04-11T00:36:44.281Z,97.30
2019-04-11T00:39:16.253Z,97.20
2019-04-11T00:41:46.799Z,97.20
2019-04-11T00:44:17.253Z,97.30
2019-04-11T00:46:48.873Z,97.30
2019-04-11T00:49:19.404Z,97.40
2019-04-11T00:51:50.344Z,97.30
2019-04-11T00:54:21.161Z,97.60
2019-04-11T00:56:52.653Z,97.70
2019-04-11T00:59:23.128Z,98.00
2019-04-11T01:01:54.982Z,97.90
2019-04-11T01:04:25.596Z,98.10
2019-04-11T01:06:57.131Z,98.10
2019-04-11T01:09:28.448Z,98.10
2019-04-11T01:12:22.686Z,98.40
2019-04-11T01:14:53.454Z,98.30
2019-04-11T01:17:25.295Z,98.30
2019-04-11T01:19:57.283Z,98.40
2019-04-11T01:22:27.822Z,98.50
2019-04-11T01:24:59.632Z,98.60
2019-04-11T01:27:32.056Z,98.80
2019-04-11T01:30:02.718Z,98.80
2019-04-11T01:32:34.696Z,99.00
2019-04-11T01:35:06.817Z,99.20
2019-04-11T01:37:38.242Z,99.30
2019-04-11T01:40:09.916Z,99.10
2019-04-11T01:42:41.673Z,99.00
2019-04-11T01:45:13.616Z,98.80
2019-04-11T01:48:09.153Z,99.00
2019-04-11T01:50:41.177Z,99.50
2019-04-11T01:53:13.034Z,99.30
2019-04-11T01:55:43.449Z,99.30
2019-04-11T01:58:14.263Z,99.30
2019-04-11T02:01:06.623Z,99.00
2019-04-11T02:03:45.600Z,98.50
2019-04-11T02:06:18.025Z,98.40
2019-04-11T02:08:49.334Z,98.40
2019-04-11T02:11:21.258Z,98.50
2019-04-11T02:13:53.354Z,98.60
2019-04-11T02:16:25.145Z,98.50
2019-04-11T02:18:56.176Z,98.60
2019-04-11T02:21:27.447Z,98.60
2019-04-11T02:24:20.029Z,98.60
2019-04-11T02:27:15.310Z,98.70
2019-04-11T02:29:46.758Z,98.80
2019-04-11T02:32:18.537Z,98.80
2019-04-11T02:34:50.662Z,98.70
2019-04-11T02:37:24.083Z,98.80
2019-04-11T02:39:55.952Z,98.90
2019-04-11T02:42:27.685Z,98.90
2019-04-11T02:45:13.483Z,99.10
2019-04-11T02:47:32.860Z,98.90
2019-04-11T02:50:03.843Z,99.00
2019-04-11T02:52:37.804Z,99.00
2019-04-11T02:55:10.638Z,99.20
2019-04-11T02:57:42.695Z,99.30
2019-04-11T03:00:15.712Z,99.30
2019-04-11T03:02:47.900Z,99.40
2019-04-11T03:05:20.745Z,99.30
2019-04-11T03:07:51.561Z,99.40
2019-04-11T03:10:24.850Z,99.40
2019-04-11T03:12:56.735Z,99.60
2019-04-11T03:15:46.741Z,99.40
2019-04-11T03:18:04.444Z,99.20
2019-04-11T03:20:40.879Z,99.30
2019-04-11T03:23:09.882Z,99.50
2019-04-11T03:25:40.604Z,99.90
2019-04-11T03:28:16.732Z,99.90
2019-04-11T03:31:03.880Z,99.90
2019-04-11T03:34:01.734Z,99.90
2019-04-11T03:37:01.161Z,99.90
2019-04-11T03:38:42.637Z,99.90
2019-04-11T03:41:12.042Z,99.90
2019-04-11T03:43:37.677Z,99.90
2019-04-11T03:46:20.160Z,99.90
2019-04-11T03:48:42.154Z,99.90
2019-04-11T03:51:04.819Z,99.90
2019-04-11T03:53:37.161Z,99.90
2019-04-11T03:56:09.650Z,99.90
2019-04-11T03:58:41.785Z,99.90
2019-04-11T04:01:13.993Z,99.90
2019-04-11T04:03:46.682Z,99.90
2019-04-11T04:06:18.986Z,99.90
2019-04-11T04:08:50.806Z,99.90
2019-04-11T04:11:27.500Z,99.90
2019-04-11T04:14:08.205Z,99.90
2019-04-11T04:16:59.288Z,99.90
2019-04-11T04:19:54.252Z,99.90
2019-04-11T04:22:35.479Z,99.90
2019-04-11T04:25:08.300Z,99.90
2019-04-11T04:27:40.881Z,99.90
2019-04-11T04:30:13.742Z,99.90
2019-04-11T04:32:45.162Z,99.90
2019-04-11T04:35:19.779Z,99.90
2019-04-11T04:37:51.517Z,99.90
2019-04-11T04:40:35.571Z,99.90
2019-04-11T04:42:56.229Z,99.90
2019-04-11T04:45:27.661Z,99.90
2019-04-11T04:48:03.256Z,99.90
2019-04-11T04:50:30.940Z,99.90
2019-04-11T04:53:02.750Z,99.90
2019-04-11T04:55:34.820Z,99.90
2019-04-11T04:58:07.215Z,99.90
2019-04-11T05:00:39.692Z,99.90
2019-04-11T05:03:10.448Z,99.90
2019-04-11T05:05:42.549Z,99.90
2019-04-11T05:08:14.573Z,99.90
2019-04-11T05:10:45.081Z,99.90
2019-04-11T05:13:17.163Z,99.90
2019-04-11T05:15:49.090Z,99.90
2019-04-11T05:18:20.769Z,99.90
2019-04-11T05:20:52.789Z,99.90
2019-04-11T05:23:23.555Z,99.90
2019-04-11T05:25:55.030Z,99.90
2019-04-11T05:28:25.577Z,99.90
2019-04-11T05:30:56.023Z,99.90
2019-04-11T05:33:27.386Z,99.90
2019-04-11T05:35:58.578Z,99.90
2019-04-11T05:38:29.377Z,99.90
2019-04-11T05:41:00.131Z,99.90
2019-04-11T05:43:36.608Z,99.90
2019-04-11T05:46:10.156Z,99.90
2019-04-11T05:48:57.989Z,99.90
2019-04-11T05:51:36.999Z,99.90
2019-04-11T05:54:05.942Z,99.90
2019-04-11T05:56:33.433Z,99.90
2019-04-11T05:59:15.115Z,99.90
2019-04-11T06:01:54.880Z,99.90
2019-04-11T06:04:46.884Z,99.90
2019-04-11T06:07:35.017Z,99.90
2019-04-11T06:10:12.833Z,99.90
2019-04-11T06:13:00.739Z,99.90
2019-04-11T06:15:38.765Z,99.90
2019-04-11T06:18:25.218Z,99.90
2019-04-11T06:20:48.660Z,99.90
2019-04-11T06:23:35.851Z,99.90
2019-04-11T06:26:18.869Z,99.90
2019-04-11T06:28:53.687Z,99.90
2019-04-11T06:31:40.810Z,99.90
2019-04-11T06:34:11.420Z,99.90
2019-04-11T06:37:01.381Z,99.90
2019-04-11T06:39:59.673Z,99.90
2019-04-11T06:42:45.522Z,99.90
2019-04-11T06:45:48.047Z,99.90
2019-04-11T06:48:40.023Z,99.90
2019-04-11T06:51:14.156Z,99.90
2019-04-11T06:54:02.468Z,99.50
2019-04-11T06:56:45.483Z,99.30
2019-04-11T06:59:20.510Z,99.20
2019-04-11T07:01:51.146Z,98.90
2019-04-11T07:04:35.713Z,98.80
2019-04-11T07:07:09.552Z,98.20
2019-04-11T07:09:49.597Z,98.30
2019-04-11T07:12:33.281Z,98.00
2019-04-11T07:15:18.762Z,97.60
2019-04-11T07:18:07.577Z,97.10
2019-04-11T07:21:02.998Z,96.80
2019-04-11T07:23:51.590Z,96.90
2019-04-11T07:26:43.895Z,96.70
2019-04-11T07:29:33.782Z,96.70
2019-04-11T07:32:13.564Z,96.70
2019-04-11T07:35:21.508Z,96.50
2019-04-11T07:37:55.375Z,95.70
2019-04-11T07:40:47.537Z,95.30
2019-04-11T07:43:33.596Z,94.80
2019-04-11T07:46:24.576Z,94.70
2019-04-11T07:49:08.018Z,93.80
2019-04-11T07:51:52.720Z,93.50
2019-04-11T07:54:25.794Z,93.50
2019-04-11T07:57:04.827Z,94.10
2019-04-11T07:59:53.643Z,93.60
2019-04-11T08:02:41.939Z,93.00
2019-04-11T08:05:30.520Z,92.80
2019-04-11T08:08:35.228Z,92.40
2019-04-11T08:11:31.719Z,89.30
2019-04-11T08:14:14.123Z,88.00
2019-04-11T08:17:27.023Z,88.40
2019-04-11T08:20:06.117Z,83.70
2019-04-11T08:22:43.187Z,75.60
2019-04-11T08:25:33.487Z,72.80
2019-04-11T08:28:07.905Z,75.00
2019-04-11T08:30:57.534Z,74.90
2019-04-11T08:33:29.166Z,73.20
2019-04-11T08:36:22.015Z,77.80
2019-04-11T08:38:53.610Z,80.30
2019-04-11T08:41:47.479Z,79.20
2019-04-11T08:44:21.893Z,75.30
2019-04-11T08:46:58.051Z,72.80
2019-04-11T08:49:35.420Z,71.50
2019-04-11T08:52:11.817Z,74.30
2019-04-11T08:55:02.171Z,74.40
2019-04-11T08:57:36.168Z,69.70
2019-04-11T09:00:31.268Z,70.10
2019-04-11T09:03:07.310Z,72.30
2019-04-11T09:05:49.299Z,70.40
2019-04-11T09:08:38.452Z,71.30
2019-04-11T09:11:22.797Z,71.50
2019-04-11T09:14:11.583Z,71.10
2019-04-11T09:17:04.268Z,72.10
2019-04-11T09:19:47.331Z,71.50
2019-04-11T09:22:31.079Z,71.30
2019-04-11T09:25:21.140Z,71.90
2019-04-11T09:28:11.262Z,72.40
2019-04-11T09:31:01.282Z,72.90
2019-04-11T09:33:57.570Z,72.70
2019-04-11T09:36:56.043Z,73.50
2019-04-11T09:39:41.374Z,72.70
2019-04-11T09:42:40.155Z,73.80
2019-04-11T09:45:35.394Z,71.50
2019-04-11T09:48:44.396Z,71.70
2019-04-11T09:51:38.087Z,70.60
2019-04-11T09:54:23.982Z,67.60
2019-04-11T09:57:20.598Z,65.80
2019-04-11T10:00:14.369Z,63.60
2019-04-11T10:03:04.062Z,66.40
2019-04-11T10:06:05.420Z,64.10
2019-04-11T10:08:41.634Z,66.30
2019-04-11T10:11:30.445Z,63.40
2019-04-11T10:14:05.283Z,64.40
2019-04-11T10:16:53.365Z,64.20
2019-04-11T10:19:40.114Z,62.90
2019-04-11T10:22:48.268Z,61.90
2019-04-11T10:25:23.462Z,61.50
2019-04-11T10:28:31.329Z,63.30
2019-04-11T10:31:12.954Z,63.70
2019-04-11T10:34:06.688Z,66.10
2019-04-11T10:36:41.145Z,67.00
2019-04-11T10:39:33.939Z,66.00
2019-04-11T10:42:08.508Z,66.70
2019-04-11T10:45:07.493Z,65.80
2019-04-11T10:47:38.764Z,66.00
2019-04-11T10:50:17.805Z,67.10
2019-04-11T10:52:52.902Z,66.50
2019-04-11T10:55:29.394Z,65.40
2019-04-11T10:58:05.119Z,65.00
2019-04-11T11:00:53.629Z,65.50
2019-04-11T11:03:36.076Z,64.30
2019-04-11T11:06:07.248Z,64.90
2019-04-11T11:08:45.931Z,63.30
2019-04-11T11:11:21.942Z,63.60
2019-04-11T11:14:24.773Z,62.90
2019-04-11T11:17:05.186Z,61.90
2019-04-11T11:20:03.533Z,61.50
2019-04-11T11:22:51.750Z,61.50
2019-04-11T11:25:48.484Z,60.70
2019-04-11T11:28:18.983Z,60.10
2019-04-11T11:31:18.043Z,58.40
2019-04-11T11:33:49.017Z,57.70
2019-04-11T11:36:45.718Z,57.20
2019-04-11T11:39:37.386Z,56.60
2019-04-11T11:42:26.169Z,57.60
2019-04-11T11:45:04.139Z,55.30
2019-04-11T11:48:12.821Z,57.00
2019-04-11T11:50:39.216Z,55.80
2019-04-11T11:53:25.802Z,54.70
2019-04-11T11:55:55.715Z,54.60
2019-04-11T11:58:51.482Z,54.10
2019-04-11T12:01:17.791Z,53.80
2019-04-11T12:04:04.969Z,53.70
2019-04-11T12:06:35.760Z,53.00
2019-04-11T12:09:26.583Z,53.50
2019-04-11T12:12:02.402Z,54.10
2019-04-11T12:14:59.330Z,55.40
2019-04-11T12:17:49.058Z,55.30
2019-04-11T12:20:27.007Z,55.30
2019-04-11T12:22:59.516Z,55.90
2019-04-11T12:25:34.563Z,54.70
2019-04-11T12:28:23.899Z,54.80
2019-04-11T12:31:01.330Z,55.60
2019-04-11T12:33:52.110Z,55.80
2019-04-11T12:36:37.015Z,55.40
2019-04-11T12:39:36.274Z,57.20
2019-04-11T12:42:25.599Z,58.00
2019-04-11T12:45:14.473Z,57.20
2019-04-11T12:47:48.358Z,57.30
2019-04-11T12:50:36.830Z,57.50
2019-04-11T12:53:09.701Z,57.10
2019-04-11T12:55:57.733Z,58.70
2019-04-11T12:58:46.019Z,59.10
2019-04-11T13:01:35.778Z,59.80
2019-04-11T13:04:23.783Z,60.50
2019-04-11T13:07:25.897Z,60.30
2019-04-11T13:09:59.472Z,60.10
2019-04-11T13:12:47.880Z,58.30
2019-04-11T13:15:25.060Z,58.80
2019-04-11T13:18:20.920Z,61.20
2019-04-11T13:21:19.926Z,60.60
2019-04-11T13:24:09.633Z,61.80
2019-04-11T13:26:58.422Z,62.20
2019-04-11T13:30:02.902Z,63.20
2019-04-11T13:32:44.788Z,63.10
2019-04-11T13:35:33.156Z,63.20
2019-04-11T13:38:17.345Z,62.40
2019-04-11T13:41:29.028Z,63.80
2019-04-11T13:44:11.533Z,64.60
2019-04-11T13:47:03.876Z,64.40
2019-04-11T13:49:55.487Z,63.50
2019-04-11T13:52:45.048Z,64.10
2019-04-11T13:55:42.194Z,62.70
2019-04-11T13:58:34.649Z,62.30
2019-04-11T14:01:13.502Z,62.10
2019-04-11T14:04:08.638Z,62.90
2019-04-11T14:06:39.163Z,61.70
2019-04-11T14:09:37.704Z,61.80
2019-04-11T14:12:13.037Z,61.00
2019-04-11T14:14:55.876Z,59.60
2019-04-11T14:17:44.031Z,58.20
2019-04-11T14:20:29.137Z,57.40
2019-04-11T14:23:14.681Z,57.80
2019-04-11T14:26:11.397Z,54.90
2019-04-11T14:28:47.950Z,50.60
2019-04-11T14:31:50.899Z,45.00
2019-04-11T14:34:40.337Z,41.40
2019-04-11T14:37:38.170Z,38.30
2019-04-11T14:40:29.558Z,37.00
2019-04-11T14:43:25.759Z,36.30
2019-04-11T14:46:24.477Z,34.60
2019-04-11T14:49:12.806Z,35.00
2019-04-11T14:52:01.373Z,34.20
2019-04-11T14:54:41.206Z,34.50
2019-04-11T14:57:22.742Z,34.20
2019-04-11T15:00:05.916Z,34.90
2019-04-11T15:03:03.269Z,34.80
2019-04-11T15:05:59.104Z,34.30
2019-04-11T15:09:02.361Z,36.40
2019-04-11T15:11:52.447Z,38.90
2019-04-11T15:14:51.827Z,41.50
2019-04-11T15:17:26.371Z,43.00
2019-04-11T15:20:16.050Z,45.20
2019-04-11T15:22:49.231Z,46.90
2019-04-11T15:25:37.860Z,47.70
2019-04-11T15:28:28.378Z,49.00
2019-04-11T15:31:03.173Z,50.10
2019-04-11T15:33:46.881Z,50.90
2019-04-11T15:36:19.135Z,51.40
2019-04-11T15:39:13.963Z,51.30
2019-04-11T15:41:44.933Z,52.30
2019-04-11T15:44:33.573Z,53.70
2019-04-11T15:47:05.753Z,54.70
2019-04-11T15:49:55.232Z,55.10
2019-04-11T15:52:26.293Z,54.90
2019-04-11T15:55:18.861Z,52.80
2019-04-11T15:57:55.761Z,51.30
2019-04-11T16:00:45.921Z,49.20
2019-04-11T16:03:19.750Z,47.80
2019-04-11T16:06:24.873Z,47.30
2019-04-11T16:08:58.305Z,46.60
2019-04-11T16:11:53.558Z,46.70
2019-04-11T16:14:43.172Z,48.00
2019-04-11T16:17:35.716Z,49.80
2019-04-11T16:20:17.839Z,52.10
2019-04-11T16:23:12.294Z,54.00
2019-04-11T16:25:46.160Z,54.80
2019-04-11T16:28:35.763Z,56.00
2019-04-11T16:31:09.660Z,56.20
2019-04-11T16:33:57.739Z,57.30
2019-04-11T16:36:47.414Z,57.20
2019-04-11T16:39:50.109Z,57.70
2019-04-11T16:42:27.489Z,58.00
2019-04-11T16:45:25.070Z,58.20
2019-04-11T16:48:03.232Z,59.00
2019-04-11T16:50:34.005Z,59.20
2019-04-11T16:53:04.840Z,59.60
2019-04-11T16:55:36.758Z,58.90
2019-04-11T16:58:07.612Z,58.80
2019-04-11T17:00:38.726Z,59.20
2019-04-11T17:03:09.878Z,59.40
2019-04-11T17:05:42.165Z,59.70
2019-04-11T17:08:30.647Z,60.10
2019-04-11T17:11:09.986Z,60.10
2019-04-11T17:13:40.469Z,59.80
2019-04-11T17:16:13.135Z,60.10
2019-04-11T17:18:44.339Z,60.60
2019-04-11T17:21:14.763Z,61.10
2019-04-11T17:23:47.244Z,61.80
2019-04-11T17:26:18.451Z,61.70
2019-04-11T17:28:49.385Z,62.40
2019-04-11T17:31:20.149Z,62.40
2019-04-11T17:33:51.027Z,62.70
2019-04-11T17:36:21.787Z,62.40
2019-04-11T17:38:52.865Z,62.50
2019-04-11T17:41:23.826Z,63.40
2019-04-11T17:43:54.765Z,62.60
2019-04-11T17:46:27.062Z,63.40
2019-04-11T17:48:58.632Z,63.20
2019-04-11T17:51:29.305Z,63.40
2019-04-11T17:54:01.482Z,63.60
2019-04-11T17:56:32.294Z,64.00
2019-04-11T17:59:02.960Z,64.30
2019-04-11T18:01:37.820Z,64.80
2019-04-11T18:04:08.783Z,65.10
2019-04-11T18:06:39.163Z,64.90
2019-04-11T18:09:12.705Z,65.60
2019-04-11T18:11:43.364Z,65.90
2019-04-11T18:14:13.924Z,65.70
2019-04-11T18:16:44.976Z,65.80
2019-04-11T18:19:15.630Z,67.00
2019-04-11T18:21:46.748Z,66.50
2019-04-11T18:24:19.684Z,66.20
2019-04-11T18:26:51.754Z,66.30
2019-04-11T18:29:23.012Z,66.20
2019-04-11T18:31:54.296Z,66.60
2019-04-11T18:34:24.992Z,66.80
2019-04-11T18:36:55.696Z,66.70
2019-04-11T18:39:26.690Z,66.90
2019-04-11T18:41:57.704Z,67.00
2019-04-11T18:44:28.576Z,67.30
2019-04-11T18:46:59.792Z,67.70
2019-04-11T18:49:30.488Z,67.60
2019-04-11T18:52:01.498Z,67.40
2019-04-11T18:54:33.178Z,67.30
2019-04-11T18:57:03.737Z,67.50
2019-04-11T18:59:34.586Z,67.60
2019-04-11T19:02:05.317Z,67.90
2019-04-11T19:04:35.942Z,68.10
2019-04-11T19:07:07.042Z,68.20
2019-04-11T19:09:37.945Z,68.50
2019-04-11T19:12:09.402Z,68.60
2019-04-11T19:14:40.269Z,69.00
2019-04-11T19:17:11.045Z,69.10
2019-04-11T19:19:42.247Z,69.70
2019-04-11T19:22:12.979Z,69.50
2019-04-11T19:24:43.666Z,70.00
2019-04-11T19:27:16.547Z,70.40
2019-04-11T19:29:48.517Z,70.80
2019-04-11T19:32:19.611Z,70.90
2019-04-11T19:34:50.485Z,71.20
2019-04-11T19:37:21.475Z,71.80
2019-04-11T19:39:52.023Z,72.40
2019-04-11T19:42:23.889Z,72.60
2019-04-11T19:44:54.762Z,72.70
2019-04-11T19:47:25.496Z,73.10
2019-04-11T19:49:58.584Z,73.30
2019-04-11T19:52:31.856Z,73.40
2019-04-11T19:55:11.768Z,73.60
2019-04-11T19:57:42.602Z,73.80
2019-04-11T20:00:14.786Z,73.80
2019-04-11T20:02:45.361Z,73.80
2019-04-11T20:05:16.406Z,74.30
2019-04-11T20:07:58.935Z,74.60
2019-04-11T20:10:30.764Z,75.10
2019-04-11T20:13:02.675Z,75.50
2019-04-11T20:15:37.297Z,76.00
2019-04-11T20:18:05.896Z,76.50
2019-04-11T20:20:37.121Z,76.50
2019-04-11T20:23:10.515Z,77.40
2019-04-11T20:25:40.756Z,78.10
2019-04-11T20:28:11.347Z,78.80
2019-04-11T20:30:42.464Z,79.00
2019-04-11T20:33:12.980Z,79.50
2019-04-11T20:35:44.657Z,80.00
2019-04-11T20:38:16.177Z,80.80
2019-04-11T20:40:47.416Z,81.30
2019-04-11T20:43:18.316Z,82.20
2019-04-11T20:45:48.930Z,82.20
2019-04-11T20:48:19.764Z,83.20
2019-04-11T20:50:50.660Z,83.40
2019-04-11T20:53:21.356Z,84.00
2019-04-11T20:55:53.238Z,84.40
2019-04-11T20:58:27.585Z,84.60
2019-04-11T21:00:56.573Z,85.60
2019-04-11T21:03:29.904Z,85.70
2019-04-11T21:06:01.850Z,86.00
2019-04-11T21:08:33.652Z,86.60
2019-04-11T21:11:05.225Z,86.60
2019-04-11T21:13:38.142Z,87.20
2019-04-11T21:16:08.087Z,88.50
2019-04-11T21:18:38.584Z,89.20
2019-04-11T21:21:09.321Z,89.90
2019-04-11T21:23:39.897Z,90.20
2019-04-11T21:26:10.516Z,90.50
2019-04-11T21:28:41.275Z,90.50
2019-04-11T21:31:11.896Z,90.40
2019-04-11T21:33:43.637Z,91.20
2019-04-11T21:36:14.578Z,91.10
2019-04-11T21:38:45.163Z,91.50
2019-04-11T21:41:16.362Z,91.80
2019-04-11T21:43:47.269Z,91.80
2019-04-11T21:46:18.101Z,91.80
2019-04-11T21:48:48.831Z,92.30
2019-04-11T21:51:19.670Z,92.50
2019-04-11T21:53:51.259Z,92.80
2019-04-11T21:56:21.951Z,92.80
2019-04-11T21:58:52.441Z,92.70
2019-04-11T22:01:24.840Z,93.10
2019-04-11T22:03:57.682Z,93.30
2019-04-11T22:06:28.005Z,93.20
2019-04-11T22:09:00.071Z,93.50
2019-04-11T22:11:30.885Z,93.70
2019-04-11T22:14:01.515Z,93.90
2019-04-11T22:16:32.463Z,94.00
2019-04-11T22:19:02.989Z,94.10
2019-04-11T22:21:36.790Z,94.30
2019-04-11T22:24:07.425Z,94.50
2019-04-11T22:26:38.254Z,94.60
2019-04-11T22:29:09.075Z,94.60
2019-04-11T22:31:39.656Z,94.80
2019-04-11T22:34:15.398Z,94.80
2019-04-11T22:36:45.962Z,95.10
2019-04-11T22:39:16.439Z,95.30
2019-04-11T22:41:47.121Z,95.50
2019-04-11T22:44:17.794Z,95.60
2019-04-11T22:46:48.646Z,95.70
2019-04-11T22:49:19.306Z,95.80
2019-04-11T22:51:50.118Z,95.90
2019-04-11T22:54:20.676Z,96.00
2019-04-11T22:56:51.337Z,96.50
2019-04-11T22:59:22.018Z,96.20
2019-04-11T23:01:54.406Z,96.10
2019-04-11T23:04:25.072Z,96.40
2019-04-11T23:06:55.866Z,96.50
2019-04-11T23:09:26.382Z,96.10
2019-04-11T23:11:57.222Z,96.50
2019-04-11T23:14:27.870Z,96.40
2019-04-11T23:16:58.448Z,96.60
2019-04-11T23:19:29.215Z,97.30
2019-04-11T23:21:59.864Z,97.00
2019-04-11T23:24:30.311Z,97.10
2019-04-11T23:27:01.860Z,97.10
2019-04-11T23:29:32.647Z,97.10
2019-04-11T23:32:03.570Z,96.90
2019-04-11T23:34:34.171Z,97.00
2019-04-11T23:37:04.752Z,97.10
2019-04-11T23:39:36.530Z,97.00
2019-04-11T23:42:07.308Z,97.10
2019-04-11T23:44:37.689Z,97.50
2019-04-11T23:47:08.225Z,97.20
2019-04-11T23:49:39.849Z,97.30
2019-04-11T23:52:10.244Z,97.20
2019-04-11T23:54:40.825Z,97.30
2019-04-11T23:57:11.709Z,97.60
2019-04-11T23:59:42.132Z,97.70
